createdAt,value
2022-10-05T00:01:53.781Z,9.04
2022-10-05T00:04:26.344Z,9.13
2022-10-05T00:07:06.536Z,9.19
2022-10-05T00:09:37.256Z,9.08
2022-10-05T00:12:17.603Z,9.19
2022-10-05T00:14:47.423Z,9.04
2022-10-05T00:17:24.305Z,9.08
2022-10-05T00:19:55.101Z,9.02
2022-10-05T00:22:31.938Z,9.17
2022-10-05T00:25:26.204Z,9.27
2022-10-05T00:28:01.426Z,9.37
2022-10-05T00:30:35.465Z,9.31
2022-10-05T00:33:06.462Z,9.36
2022-10-05T00:35:48.036Z,9.39
2022-10-05T00:38:20.629Z,9.60
2022-10-05T00:40:54.931Z,9.65
2022-10-05T00:44:44.448Z,9.67
2022-10-05T00:47:46.961Z,9.68
2022-10-05T00:51:02.177Z,9.54
2022-10-05T00:54:18.513Z,9.56
2022-10-05T00:57:40.140Z,9.72
2022-10-05T01:00:13.548Z,9.62
2022-10-05T01:03:04.806Z,9.54
2022-10-05T01:06:01.688Z,9.62
2022-10-05T01:08:51.236Z,9.64
2022-10-05T01:11:30.891Z,9.59
2022-10-05T01:14:20.054Z,9.27
2022-10-05T01:17:13.828Z,9.00
2022-10-05T01:20:42.022Z,9.09
2022-10-05T01:23:41.715Z,9.00
2022-10-05T01:26:37.106Z,9.24
2022-10-05T01:29:32.451Z,9.29
2022-10-05T01:32:30.271Z,9.15
2022-10-05T01:35:55.740Z,9.14
2022-10-05T01:38:37.845Z,9.16
2022-10-05T01:41:31.791Z,9.23
2022-10-05T01:44:15.783Z,9.08
2022-10-05T01:47:04.894Z,9.09
2022-10-05T01:50:03.840Z,9.13
2022-10-05T01:53:10.991Z,9.26
2022-10-05T01:56:25.576Z,9.28
2022-10-05T01:59:06.947Z,9.13
2022-10-05T02:01:55.187Z,9.11
2022-10-05T02:07:44.511Z,9.04
2022-10-05T02:10:25.957Z,9.07
2022-10-05T02:13:04.502Z,9.10
2022-10-05T02:15:42.245Z,9.02
2022-10-05T02:18:28.309Z,9.02
2022-10-05T02:21:02.207Z,8.97
2022-10-05T02:23:34.511Z,8.76
2022-10-05T02:26:01.991Z,8.82
2022-10-05T02:28:39.855Z,8.79
2022-10-05T02:31:38.048Z,8.60
2022-10-05T02:34:23.624Z,8.73
2022-10-05T02:37:36.081Z,8.51
2022-10-05T02:40:45.311Z,8.74
2022-10-05T02:43:23.830Z,8.79
2022-10-05T02:46:36.752Z,8.76
2022-10-05T02:49:58.475Z,8.66
2022-10-05T02:52:59.456Z,8.63
2022-10-05T02:56:14.527Z,8.64
2022-10-05T02:58:57.747Z,8.44
2022-10-05T03:01:55.342Z,8.73
2022-10-05T03:04:54.017Z,8.78
2022-10-05T03:08:18.828Z,8.54
2022-10-05T03:11:19.235Z,8.65
2022-10-05T03:14:09.506Z,8.52
2022-10-05T03:17:12.422Z,8.48
2022-10-05T03:20:00.455Z,8.58
2022-10-05T03:22:46.276Z,8.56
2022-10-05T03:25:28.567Z,8.58
2022-10-05T03:28:35.241Z,8.62
2022-10-05T03:31:39.519Z,8.63
2022-10-05T03:34:31.512Z,8.53
2022-10-05T03:37:29.857Z,8.53
2022-10-05T03:41:03.633Z,8.57
2022-10-05T03:43:49.712Z,8.51
2022-10-05T03:46:25.913Z,8.41
2022-10-05T03:49:31.812Z,8.37
2022-10-05T03:52:22.219Z,8.15
2022-10-05T03:55:15.035Z,8.12
2022-10-05T03:57:46.622Z,8.22
2022-10-05T04:00:23.079Z,8.19
2022-10-05T04:02:57.158Z,8.28
2022-10-05T04:05:52.641Z,8.21
2022-10-05T04:08:48.509Z,8.28
2022-10-05T04:11:36.966Z,8.21
2022-10-05T04:14:16.603Z,8.42
2022-10-05T04:16:57.836Z,8.42
2022-10-05T04:20:02.012Z,8.43
2022-10-05T04:22:42.733Z,8.29
2022-10-05T04:25:22.807Z,8.37
2022-10-05T04:28:11.993Z,8.27
2022-10-05T04:30:45.717Z,8.34
2022-10-05T04:33:15.134Z,8.50
2022-10-05T04:36:14.439Z,8.61
2022-10-05T04:38:44.751Z,8.65
2022-10-05T04:42:05.095Z,8.60
2022-10-05T04:44:45.944Z,8.66
2022-10-05T04:47:39.829Z,8.71
2022-10-05T04:50:31.143Z,8.52
2022-10-05T04:53:24.846Z,8.71
2022-10-05T04:56:00.397Z,8.73
2022-10-05T04:59:31.733Z,8.74
2022-10-05T05:02:20.945Z,8.55
2022-10-05T05:05:18.264Z,8.71
2022-10-05T05:08:15.706Z,8.46
2022-10-05T05:11:24.660Z,8.38
2022-10-05T05:14:48.853Z,8.38
2022-10-05T05:17:31.325Z,8.51
2022-10-05T05:20:42.011Z,8.34
2022-10-05T05:23:32.624Z,8.31
2022-10-05T05:26:38.775Z,8.25
2022-10-05T05:29:41.584Z,8.20
2022-10-05T05:33:01.766Z,7.87
2022-10-05T05:36:04.520Z,8.02
2022-10-05T05:38:41.887Z,7.94
2022-10-05T05:41:34.516Z,8.25
2022-10-05T05:44:25.002Z,8.37
2022-10-05T05:47:05.480Z,8.24
2022-10-05T05:50:16.779Z,8.36
2022-10-05T05:53:01.833Z,8.41
2022-10-05T05:55:42.894Z,8.31
2022-10-05T05:58:29.521Z,8.41
2022-10-05T06:01:25.126Z,8.37
2022-10-05T06:04:24.870Z,8.30
2022-10-05T06:06:56.343Z,8.26
2022-10-05T06:09:27.772Z,8.29
2022-10-05T06:12:04.309Z,8.37
2022-10-05T06:14:50.357Z,8.35
2022-10-05T06:18:00.350Z,8.21
2022-10-05T06:20:51.129Z,8.18
2022-10-05T06:23:49.644Z,8.12
2022-10-05T06:27:06.805Z,8.45
2022-10-05T06:29:53.347Z,8.54
2022-10-05T06:32:55.022Z,8.88
2022-10-05T06:35:54.023Z,9.13
2022-10-05T06:39:23.437Z,9.21
2022-10-05T06:42:06.247Z,9.43
2022-10-05T06:45:00.412Z,9.49
2022-10-05T06:48:00.478Z,9.47
2022-10-05T06:50:42.948Z,9.71
2022-10-05T06:53:53.068Z,9.75
2022-10-05T06:56:47.402Z,9.77
2022-10-05T06:59:32.386Z,9.82
2022-10-05T07:02:29.867Z,9.81
2022-10-05T07:05:30.288Z,9.85
2022-10-05T07:08:04.213Z,9.86
2022-10-05T07:10:54.871Z,10.05
2022-10-05T07:13:53.799Z,10.13
2022-10-05T07:16:43.762Z,10.26
2022-10-05T07:19:36.970Z,10.29
2022-10-05T07:22:39.201Z,10.49
2022-10-05T07:25:48.169Z,10.66
2022-10-05T07:28:37.540Z,10.77
2022-10-05T07:31:38.928Z,10.99
2022-10-05T07:34:30.217Z,11.14
2022-10-05T07:37:37.817Z,11.37
2022-10-05T07:40:40.199Z,11.53
2022-10-05T07:43:57.647Z,11.80
2022-10-05T07:46:54.209Z,11.99
2022-10-05T07:49:59.680Z,12.01
2022-10-05T07:52:46.012Z,11.97
2022-10-05T07:55:29.961Z,11.96
2022-10-05T07:58:30.118Z,12.11
2022-10-05T08:01:08.657Z,12.07
2022-10-05T08:04:41.409Z,12.31
2022-10-05T08:07:18.787Z,12.29
2022-10-05T08:10:18.221Z,12.50
2022-10-05T08:13:24.063Z,12.67
2022-10-05T08:15:59.911Z,12.65
2022-10-05T08:19:08.829Z,12.91
2022-10-05T08:22:04.685Z,13.02
2022-10-05T08:24:51.698Z,13.05
2022-10-05T08:28:08.710Z,13.11
2022-10-05T08:30:57.406Z,13.30
2022-10-05T08:33:59.596Z,13.49
2022-10-05T08:37:06.459Z,13.66
2022-10-05T08:39:55.732Z,13.91
2022-10-05T08:43:02.924Z,14.10
2022-10-05T08:46:03.934Z,14.26
2022-10-05T08:49:08.798Z,14.43
2022-10-05T08:52:26.136Z,14.54
2022-10-05T08:56:06.073Z,14.62
2022-10-05T08:59:19.847Z,14.49
2022-10-05T09:02:51.916Z,14.67
2022-10-05T09:05:44.866Z,14.64
2022-10-05T09:09:05.330Z,14.76
2022-10-05T09:12:05.420Z,14.85
2022-10-05T09:15:27.479Z,14.93
2022-10-05T09:18:24.937Z,15.07
2022-10-05T09:22:06.136Z,15.27
2022-10-05T09:24:57.994Z,15.20
2022-10-05T09:28:07.106Z,15.35
2022-10-05T09:31:38.388Z,15.56
2022-10-05T09:34:57.773Z,15.65
2022-10-05T09:38:09.099Z,15.77
2022-10-05T09:41:08.374Z,15.84
2022-10-05T09:44:24.180Z,15.72
2022-10-05T09:47:38.694Z,15.95
2022-10-05T09:50:27.283Z,16.16
2022-10-05T09:54:18.063Z,16.29
2022-10-05T09:57:19.443Z,16.16
2022-10-05T10:01:09.574Z,16.18
2022-10-05T10:04:27.191Z,16.38
2022-10-05T10:07:51.230Z,16.56
2022-10-05T10:10:56.782Z,16.77
2022-10-05T10:14:00.020Z,16.93
2022-10-05T10:16:41.916Z,17.13
2022-10-05T10:20:14.280Z,17.23
2022-10-05T10:23:19.009Z,17.13
2022-10-05T10:26:37.203Z,17.22
2022-10-05T10:29:43.585Z,17.33
2022-10-05T10:33:15.857Z,17.57
2022-10-05T10:36:18.162Z,17.62
2022-10-05T10:39:32.349Z,17.89
2022-10-05T10:42:26.464Z,17.88
2022-10-05T10:45:19.121Z,17.95
2022-10-05T10:48:12.089Z,18.11
2022-10-05T10:51:00.556Z,18.18
2022-10-05T10:54:24.394Z,18.13
2022-10-05T10:57:18.720Z,18.25
2022-10-05T11:00:28.625Z,18.28
2022-10-05T11:03:41.208Z,18.23
2022-10-05T11:06:38.667Z,18.33
2022-10-05T11:10:09.229Z,18.39
2022-10-05T11:12:45.506Z,18.48
2022-10-05T11:20:03.592Z,18.43
2022-10-05T11:24:02.007Z,18.71
2022-10-05T11:26:56.577Z,18.59
2022-10-05T11:30:18.542Z,18.69
2022-10-05T11:33:37.161Z,18.94
2022-10-05T11:36:40.608Z,19.07
2022-10-05T11:39:53.153Z,19.01
2022-10-05T11:43:12.063Z,19.11
2022-10-05T11:46:16.121Z,19.08
2022-10-05T11:49:47.046Z,19.12
2022-10-05T11:56:31.848Z,19.22
2022-10-05T11:59:34.564Z,19.25
2022-10-05T12:02:53.649Z,19.18
2022-10-05T12:06:11.557Z,19.16
2022-10-05T12:09:03.909Z,19.30
2022-10-05T12:12:14.493Z,19.29
2022-10-05T12:14:55.169Z,19.38
2022-10-05T12:18:01.003Z,19.55
2022-10-05T12:20:47.099Z,19.66
2022-10-05T12:23:46.739Z,19.75
2022-10-05T12:26:40.923Z,19.72
2022-10-05T12:30:07.630Z,19.89
2022-10-05T12:33:07.754Z,19.92
2022-10-05T12:36:05.896Z,20.14
2022-10-05T12:39:08.205Z,20.07
2022-10-05T12:42:25.990Z,19.99
2022-10-05T12:45:16.932Z,20.04
2022-10-05T12:48:21.273Z,20.00
2022-10-05T12:51:07.839Z,19.89
2022-10-05T12:53:55.571Z,19.87
2022-10-05T12:56:45.411Z,19.96
2022-10-05T12:59:59.201Z,19.75
2022-10-05T13:02:46.565Z,19.80
2022-10-05T13:05:29.888Z,19.84
2022-10-05T13:09:11.487Z,20.01
2022-10-05T13:12:01.174Z,20.16
2022-10-05T13:14:58.304Z,20.32
2022-10-05T13:19:29.658Z,20.21
2022-10-05T13:21:14.912Z,20.47
2022-10-05T13:24:33.179Z,20.66
2022-10-05T13:27:45.070Z,20.57
2022-10-05T13:30:25.151Z,20.61
2022-10-05T13:33:58.398Z,20.70
2022-10-05T13:37:10.202Z,20.97
2022-10-05T13:40:15.906Z,21.06
2022-10-05T13:43:46.626Z,21.16
2022-10-05T13:46:59.601Z,21.41
2022-10-05T13:50:11.334Z,21.55
2022-10-05T13:52:58.490Z,21.57
2022-10-05T13:56:06.707Z,21.40
2022-10-05T13:58:50.105Z,21.92
2022-10-05T14:01:34.848Z,22.24
2022-10-05T14:04:27.232Z,22.55
2022-10-05T14:06:58.783Z,22.51
2022-10-05T14:12:23.602Z,22.21
2022-10-05T14:14:58.663Z,22.30
2022-10-05T14:17:39.858Z,22.18
2022-10-05T14:20:41.559Z,22.14
2022-10-05T14:23:24.698Z,22.13
2022-10-05T14:26:06.175Z,21.80
2022-10-05T14:28:38.510Z,21.72
2022-10-05T14:31:55.138Z,21.46
2022-10-05T14:34:39.675Z,21.28
2022-10-05T14:37:25.234Z,20.90
2022-10-05T14:40:36.256Z,20.96
2022-10-05T14:43:16.810Z,20.98
2022-10-05T14:49:36.058Z,21.01
2022-10-05T14:52:28.694Z,21.25
2022-10-05T14:55:24.595Z,21.26
2022-10-05T14:59:28.429Z,21.19
2022-10-05T15:01:58.594Z,21.23
2022-10-05T15:05:46.943Z,21.21
2022-10-05T15:08:31.677Z,20.82
2022-10-05T15:11:09.243Z,20.81
2022-10-05T15:13:48.663Z,20.60
2022-10-05T15:16:44.440Z,20.71
2022-10-05T15:19:43.898Z,20.52
2022-10-05T15:22:51.673Z,20.55
2022-10-05T15:25:55.676Z,20.53
2022-10-05T15:29:39.835Z,20.51
2022-10-05T15:32:52.602Z,20.41
2022-10-05T15:36:09.601Z,20.33
2022-10-05T15:39:09.771Z,20.24
2022-10-05T15:41:58.871Z,20.25
2022-10-05T15:44:50.460Z,20.02
2022-10-05T15:47:45.717Z,19.95
2022-10-05T15:50:37.717Z,19.78
2022-10-05T15:53:46.378Z,19.93
2022-10-05T15:56:44.488Z,19.82
2022-10-05T15:59:36.613Z,19.75
2022-10-05T16:02:23.885Z,19.83
2022-10-05T16:05:37.666Z,19.77
2022-10-05T16:08:34.954Z,19.63
2022-10-05T16:11:21.140Z,19.53
2022-10-05T16:14:24.226Z,19.50
2022-10-05T16:17:37.555Z,19.56
2022-10-05T16:20:29.226Z,19.51
2022-10-05T16:23:47.389Z,19.34
2022-10-05T16:26:33.962Z,19.27
2022-10-05T16:29:54.230Z,19.27
2022-10-05T16:32:34.987Z,19.20
2022-10-05T16:35:56.891Z,19.08
2022-10-05T16:39:49.817Z,19.06
2022-10-05T16:42:47.265Z,19.05
2022-10-05T16:45:44.400Z,18.83
2022-10-05T16:48:39.046Z,18.73
2022-10-05T16:51:51.194Z,18.57
2022-10-05T17:00:16.100Z,18.33
2022-10-05T17:03:09.995Z,18.25
2022-10-05T17:06:26.025Z,18.08
2022-10-05T17:09:28.865Z,17.96
2022-10-05T17:16:45.987Z,17.65
2022-10-05T17:19:21.379Z,17.57
2022-10-05T17:22:04.701Z,17.49
2022-10-05T17:24:59.596Z,17.34
2022-10-05T17:29:05.013Z,17.21
2022-10-05T17:32:33.852Z,16.98
2022-10-05T17:35:00.667Z,16.98
2022-10-05T17:37:27.332Z,16.98
2022-10-05T17:40:28.333Z,16.73
2022-10-05T17:43:33.940Z,16.70
2022-10-05T17:46:30.322Z,16.62
2022-10-05T17:49:02.159Z,16.65
2022-10-05T17:51:58.070Z,16.62
2022-10-05T17:55:15.730Z,16.53
2022-10-05T17:58:23.984Z,16.48
2022-10-05T18:01:26.459Z,16.39
2022-10-05T18:03:56.418Z,16.20
2022-10-05T18:06:26.390Z,16.30
2022-10-05T18:14:00.056Z,16.20
2022-10-05T18:17:16.227Z,16.13
2022-10-05T18:20:31.939Z,16.00
2022-10-05T18:23:03.291Z,16.08
2022-10-05T18:26:05.174Z,15.99
2022-10-05T18:28:31.993Z,15.95
2022-10-05T18:31:17.587Z,15.97
2022-10-05T18:34:11.826Z,15.88
2022-10-05T18:37:07.326Z,15.91
2022-10-05T18:40:23.434Z,15.73
2022-10-05T18:43:35.687Z,15.75
2022-10-05T18:46:35.468Z,15.75
2022-10-05T18:49:20.869Z,15.68
2022-10-05T18:52:05.420Z,15.57
2022-10-05T18:55:15.427Z,15.68
2022-10-05T18:58:22.136Z,15.61
2022-10-05T19:01:10.218Z,15.59
2022-10-05T19:03:49.557Z,15.55
2022-10-05T19:06:30.556Z,15.50
2022-10-05T19:09:19.405Z,15.55
2022-10-05T19:12:11.393Z,15.40
2022-10-05T19:15:06.954Z,15.39
2022-10-05T19:18:18.593Z,15.36
2022-10-05T19:21:12.961Z,15.26
2022-10-05T19:24:06.254Z,15.40
2022-10-05T19:26:56.405Z,15.37
2022-10-05T19:29:45.544Z,15.28
2022-10-05T19:32:37.079Z,15.25
2022-10-05T19:35:28.065Z,15.31
2022-10-05T19:38:54.436Z,15.23
2022-10-05T19:41:31.176Z,15.15
2022-10-05T19:44:24.564Z,15.25
2022-10-05T19:47:12.319Z,15.10
2022-10-05T19:50:18.353Z,15.10
2022-10-05T19:52:49.827Z,14.97
2022-10-05T19:55:45.633Z,15.13
2022-10-05T19:58:39.846Z,15.05
2022-10-05T20:01:33.115Z,14.98
2022-10-05T20:04:16.677Z,14.97
2022-10-05T20:06:55.485Z,15.08
2022-10-05T20:09:28.764Z,14.99
2022-10-05T20:11:57.800Z,14.93
2022-10-05T20:14:33.119Z,15.02
2022-10-05T20:17:45.790Z,14.94
2022-10-05T20:20:44.540Z,14.91
2022-10-05T20:23:25.636Z,14.93
2022-10-05T20:26:21.481Z,14.71
2022-10-05T20:28:48.634Z,14.81
2022-10-05T20:31:23.413Z,14.83
2022-10-05T20:34:25.491Z,14.81
2022-10-05T20:36:52.305Z,14.73
2022-10-05T20:39:22.740Z,14.81
2022-10-05T20:41:55.303Z,14.70
2022-10-05T20:44:30.642Z,14.79
2022-10-05T20:47:05.568Z,14.62
2022-10-05T20:49:45.952Z,14.69
2022-10-05T20:52:29.808Z,14.60
2022-10-05T20:55:17.629Z,14.66
2022-10-05T20:57:48.804Z,14.57
2022-10-05T21:00:15.878Z,14.71
2022-10-05T21:02:54.020Z,14.50
2022-10-05T21:05:23.288Z,14.54
2022-10-05T21:07:52.626Z,14.57
2022-10-05T21:10:28.504Z,14.47
2022-10-05T21:13:02.890Z,14.53
2022-10-05T21:15:29.792Z,14.46
2022-10-05T21:17:56.677Z,14.53
2022-10-05T21:20:29.552Z,14.33
2022-10-05T21:23:05.074Z,14.40
2022-10-05T21:25:56.342Z,14.29
2022-10-05T21:28:29.778Z,14.45
2022-10-05T21:30:59.072Z,14.39
2022-10-05T21:33:26.574Z,14.20
2022-10-05T21:35:53.675Z,14.25
2022-10-05T21:38:41.393Z,14.19
2022-10-05T21:41:27.173Z,14.20
2022-10-05T21:44:30.785Z,14.29
2022-10-05T21:47:19.965Z,14.23
2022-10-05T21:50:09.865Z,14.15
2022-10-05T21:52:37.662Z,14.10
2022-10-05T21:55:23.713Z,14.06
2022-10-05T21:58:10.379Z,14.01
2022-10-05T22:00:43.278Z,14.01
2022-10-05T22:06:01.523Z,14.03
2022-10-05T22:08:35.808Z,14.09
2022-10-05T22:11:21.499Z,14.14
2022-10-05T22:13:56.432Z,14.04
2022-10-05T22:20:45.089Z,14.03
2022-10-05T22:23:14.599Z,14.08
2022-10-05T22:25:46.688Z,14.03
2022-10-05T22:28:19.082Z,14.16
2022-10-05T22:31:14.920Z,14.09
2022-10-05T22:33:53.837Z,14.13
2022-10-05T22:36:22.798Z,14.10
2022-10-05T22:39:00.595Z,14.13
2022-10-05T22:41:33.222Z,14.01
2022-10-05T22:44:10.734Z,14.14
2022-10-05T22:46:37.505Z,14.01
2022-10-05T22:49:04.197Z,14.10
2022-10-05T22:51:39.000Z,14.12
2022-10-05T22:54:29.323Z,14.00
2022-10-05T22:57:17.380Z,14.16
2022-10-05T23:00:04.291Z,13.96
2022-10-05T23:02:43.928Z,13.96
2022-10-05T23:05:17.309Z,13.93
2022-10-05T23:07:53.679Z,13.89
2022-10-05T23:10:29.856Z,14.02
2022-10-05T23:13:01.276Z,13.85
2022-10-05T23:15:28.222Z,13.90
2022-10-05T23:17:58.875Z,13.93
2022-10-05T23:20:27.896Z,13.86
2022-10-05T23:23:01.041Z,13.90
2022-10-05T23:25:30.179Z,13.89
2022-10-05T23:27:56.932Z,13.84
2022-10-05T23:34:40.911Z,13.77
2022-10-05T23:37:11.427Z,13.83
2022-10-05T23:39:38.134Z,13.75
2022-10-05T23:42:21.795Z,13.72
2022-10-05T23:45:00.166Z,13.73
2022-10-05T23:47:29.850Z,13.81
2022-10-05T23:50:03.050Z,13.71
2022-10-05T23:52:30.093Z,13.70
2022-10-05T23:55:11.877Z,13.65
2022-10-05T23:57:40.920Z,13.65
